createdAt,value
2023-01-06T00:01:26.644Z,7.20
2023-01-06T00:03:58.406Z,6.63
2023-01-06T00:06:31.020Z,6.93
2023-01-06T00:09:00.748Z,7.60
2023-01-06T00:11:29.275Z,7.17
2023-01-06T00:13:57.948Z,8.70
2023-01-06T00:16:26.512Z,7.70
2023-01-06T00:18:56.683Z,7.93
2023-01-06T00:21:27.149Z,7.27
2023-01-06T00:23:55.967Z,6.10
2023-01-06T00:26:24.522Z,6.63
2023-01-06T00:28:54.666Z,7.53
2023-01-06T00:31:23.859Z,7.87
2023-01-06T00:33:52.662Z,7.57
2023-01-06T00:36:22.569Z,7.07
2023-01-06T00:38:52.788Z,6.37
2023-01-06T00:41:38.850Z,6.47
2023-01-06T00:44:08.222Z,6.47
2023-01-06T00:46:36.834Z,5.93
2023-01-06T00:49:07.387Z,5.80
2023-01-06T00:51:37.621Z,5.90
2023-01-06T00:54:08.195Z,5.57
2023-01-06T00:56:38.530Z,5.87
2023-01-06T00:59:07.872Z,6.17
2023-01-06T01:01:37.028Z,5.10
2023-01-06T01:04:05.919Z,7.70
2023-01-06T01:06:34.836Z,5.07
2023-01-06T01:09:03.683Z,5.83
2023-01-06T01:11:51.111Z,5.00
2023-01-06T01:14:21.745Z,6.03
2023-01-06T01:16:50.281Z,5.40
2023-01-06T01:19:19.594Z,5.43
2023-01-06T01:21:48.477Z,5.07
2023-01-06T01:24:17.376Z,5.13
2023-01-06T01:26:47.554Z,6.93
2023-01-06T01:29:17.902Z,5.83
2023-01-06T01:31:47.121Z,6.93
2023-01-06T01:34:17.658Z,5.90
2023-01-06T01:36:47.112Z,6.67
2023-01-06T01:39:18.039Z,6.03
2023-01-06T01:41:48.612Z,5.33
2023-01-06T01:44:55.506Z,5.60
2023-01-06T01:47:37.819Z,5.33
2023-01-06T01:50:15.845Z,5.73
2023-01-06T01:52:45.665Z,6.30
2023-01-06T01:55:15.109Z,5.63
2023-01-06T01:57:49.080Z,6.10
2023-01-06T02:00:19.342Z,5.23
2023-01-06T02:02:48.172Z,5.83
2023-01-06T02:05:21.646Z,4.67
2023-01-06T02:07:50.408Z,5.10
2023-01-06T02:10:20.576Z,4.60
2023-01-06T02:12:55.336Z,6.83
2023-01-06T02:15:26.018Z,7.10
2023-01-06T02:18:08.744Z,15.37
2023-01-06T02:20:57.349Z,15.30
2023-01-06T02:24:12.033Z,9.37
2023-01-06T02:27:10.129Z,5.67
2023-01-06T02:30:02.105Z,6.03
2023-01-06T02:32:48.655Z,4.97
2023-01-06T02:35:45.183Z,5.17
2023-01-06T02:38:22.123Z,4.93
2023-01-06T02:41:02.106Z,7.30
2023-01-06T02:43:36.327Z,6.97
2023-01-06T02:46:11.141Z,6.40
2023-01-06T02:48:48.727Z,6.23
2023-01-06T02:51:20.075Z,5.67
2023-01-06T02:53:56.171Z,5.73
2023-01-06T02:56:28.101Z,4.57
2023-01-06T02:58:59.631Z,4.73
2023-01-06T03:01:30.368Z,3.43
2023-01-06T03:04:03.259Z,4.53
2023-01-06T03:06:33.189Z,4.40
2023-01-06T03:09:02.593Z,4.33
2023-01-06T03:11:32.135Z,4.23
2023-01-06T03:14:04.225Z,4.03
2023-01-06T03:16:32.785Z,4.10
2023-01-06T03:19:03.374Z,4.10
2023-01-06T03:21:34.444Z,3.50
2023-01-06T03:24:03.172Z,4.13
2023-01-06T03:26:31.809Z,4.97
2023-01-06T03:29:00.938Z,3.30
2023-01-06T03:31:36.102Z,3.70
2023-01-06T03:34:11.948Z,2.83
2023-01-06T03:36:49.677Z,2.87
2023-01-06T03:39:20.784Z,2.93
2023-01-06T03:42:21.307Z,2.97
2023-01-06T03:45:04.067Z,3.27
2023-01-06T03:47:39.073Z,3.83
2023-01-06T03:50:22.773Z,3.00
2023-01-06T03:52:58.092Z,2.80
2023-01-06T03:55:30.757Z,3.00
2023-01-06T03:58:00.044Z,3.03
2023-01-06T04:00:30.530Z,3.00
2023-01-06T04:02:59.210Z,3.17
2023-01-06T04:05:30.097Z,3.37
2023-01-06T04:07:58.770Z,4.30
2023-01-06T04:10:27.441Z,3.30
2023-01-06T04:12:54.977Z,3.20
2023-01-06T04:15:25.224Z,3.07
2023-01-06T04:17:54.083Z,3.50
2023-01-06T04:20:24.828Z,3.70
2023-01-06T04:22:56.237Z,3.47
2023-01-06T04:25:25.519Z,2.90
2023-01-06T04:27:54.313Z,3.30
2023-01-06T04:30:22.881Z,3.53
2023-01-06T04:32:51.365Z,2.73
2023-01-06T04:35:19.886Z,3.30
2023-01-06T04:37:48.500Z,3.13
2023-01-06T04:40:18.508Z,2.90
2023-01-06T04:43:04.293Z,3.47
2023-01-06T04:45:33.200Z,3.20
2023-01-06T04:48:01.930Z,2.90
2023-01-06T04:50:30.482Z,3.93
2023-01-06T04:52:58.982Z,2.90
2023-01-06T04:55:29.058Z,3.47
2023-01-06T04:57:57.554Z,2.40
2023-01-06T05:00:26.531Z,2.93
2023-01-06T05:02:55.095Z,2.40
2023-01-06T05:05:23.882Z,2.40
2023-01-06T05:07:55.177Z,3.20
2023-01-06T05:10:23.693Z,3.10
2023-01-06T05:12:53.573Z,3.13
2023-01-06T05:15:22.031Z,2.50
2023-01-06T05:17:50.580Z,2.63
2023-01-06T05:20:19.251Z,3.17
2023-01-06T05:22:47.749Z,2.90
2023-01-06T05:25:16.496Z,2.97
2023-01-06T05:27:45.060Z,2.60
2023-01-06T05:30:15.557Z,2.87
2023-01-06T05:32:44.050Z,3.10
2023-01-06T05:35:12.553Z,3.90
2023-01-06T05:37:41.091Z,3.30
2023-01-06T05:40:10.817Z,2.87
2023-01-06T05:42:39.349Z,2.83
2023-01-06T05:45:09.332Z,2.97
2023-01-06T05:47:39.277Z,3.07
2023-01-06T05:50:08.841Z,3.20
2023-01-06T05:52:37.352Z,2.97
2023-01-06T05:55:06.718Z,3.60
2023-01-06T05:57:36.051Z,4.00
2023-01-06T06:00:06.219Z,3.77
2023-01-06T06:02:34.774Z,4.00
2023-01-06T06:05:05.185Z,7.20
2023-01-06T06:07:33.702Z,10.67
2023-01-06T06:10:02.242Z,11.53
2023-01-06T06:12:30.943Z,8.20
2023-01-06T06:14:59.473Z,5.83
2023-01-06T06:17:28.050Z,4.60
2023-01-06T06:19:56.673Z,3.93
2023-01-06T06:22:26.740Z,3.50
2023-01-06T06:24:55.297Z,3.15
2023-01-06T06:27:24.027Z,3.53
2023-01-06T06:29:52.677Z,3.30
2023-01-06T06:32:21.289Z,3.57
2023-01-06T06:34:49.833Z,4.17
2023-01-06T06:37:18.503Z,3.07
2023-01-06T06:39:48.505Z,3.13
2023-01-06T06:42:17.182Z,3.10
2023-01-06T06:44:45.907Z,3.70
2023-01-06T06:47:15.938Z,10.03
2023-01-06T06:49:44.468Z,7.00
2023-01-06T06:52:13.067Z,5.23
2023-01-06T06:54:41.914Z,3.57
2023-01-06T06:57:11.946Z,4.83
2023-01-06T06:59:40.579Z,3.40
2023-01-06T07:02:10.203Z,3.10
2023-01-06T07:04:38.887Z,2.93
2023-01-06T07:07:07.645Z,4.07
2023-01-06T07:09:36.334Z,2.50
2023-01-06T07:12:05.301Z,3.40
2023-01-06T07:14:35.225Z,2.93
2023-01-06T07:17:03.821Z,11.10
2023-01-06T07:19:32.454Z,10.60
2023-01-06T07:22:01.012Z,10.73
2023-01-06T07:24:29.579Z,8.97
2023-01-06T07:26:58.160Z,7.00
2023-01-06T07:29:26.867Z,7.20
2023-01-06T07:31:56.878Z,7.30
2023-01-06T07:34:25.411Z,8.20
2023-01-06T07:36:54.049Z,6.73
2023-01-06T07:39:22.788Z,6.07
2023-01-06T07:41:51.376Z,7.13
2023-01-06T07:44:20.000Z,7.60
2023-01-06T07:46:48.676Z,11.70
2023-01-06T07:49:18.694Z,33.53
2023-01-06T07:51:47.283Z,35.53
2023-01-06T07:54:16.067Z,22.23
2023-01-06T07:56:44.741Z,12.37
2023-01-06T07:59:13.440Z,12.07
2023-01-06T08:01:42.140Z,9.90
2023-01-06T08:04:11.227Z,9.03
2023-01-06T08:06:42.463Z,7.23
2023-01-06T08:09:11.252Z,5.53
2023-01-06T08:11:39.930Z,4.97
2023-01-06T08:14:08.509Z,5.47
2023-01-06T08:16:37.071Z,6.83
2023-01-06T08:19:06.031Z,5.30
2023-01-06T08:21:34.730Z,4.17
2023-01-06T08:24:05.399Z,6.40
2023-01-06T08:26:34.208Z,5.43
2023-01-06T08:29:03.225Z,6.07
2023-01-06T08:31:31.812Z,16.10
2023-01-06T08:34:00.454Z,15.30
2023-01-06T08:36:29.688Z,8.70
2023-01-06T08:38:58.268Z,7.17
2023-01-06T08:41:28.226Z,6.43
2023-01-06T08:43:57.071Z,6.47
2023-01-06T08:46:26.595Z,7.60
2023-01-06T08:48:57.740Z,6.37
2023-01-06T08:51:27.043Z,6.70
2023-01-06T08:53:55.942Z,6.03
2023-01-06T08:56:25.708Z,5.77
2023-01-06T08:58:58.298Z,7.10
2023-01-06T09:01:29.993Z,6.30
2023-01-06T09:04:00.023Z,7.20
2023-01-06T09:06:29.613Z,6.33
2023-01-06T09:08:59.255Z,5.57
2023-01-06T09:11:28.155Z,6.30
2023-01-06T09:13:58.066Z,16.47
2023-01-06T09:16:26.635Z,36.67
2023-01-06T09:18:55.324Z,23.63
2023-01-06T09:21:24.978Z,17.97
2023-01-06T09:23:53.680Z,12.53
2023-01-06T09:26:22.293Z,10.53
2023-01-06T09:28:51.417Z,9.93
2023-01-06T09:31:21.531Z,8.43
2023-01-06T09:33:50.482Z,7.77
2023-01-06T09:36:19.044Z,7.50
2023-01-06T09:38:47.667Z,7.93
2023-01-06T09:41:38.157Z,7.00
2023-01-06T09:44:13.568Z,6.90
2023-01-06T09:46:47.108Z,5.43
2023-01-06T09:49:21.653Z,4.50
2023-01-06T09:51:50.273Z,4.37
2023-01-06T09:54:22.111Z,7.07
2023-01-06T09:56:55.034Z,4.30
2023-01-06T09:59:28.886Z,4.77
2023-01-06T10:01:59.928Z,5.63
2023-01-06T10:04:30.764Z,6.40
2023-01-06T10:07:11.255Z,9.87
2023-01-06T10:09:47.066Z,3.83
2023-01-06T10:12:32.029Z,9.20
2023-01-06T10:15:13.953Z,2.67
2023-01-06T10:17:54.179Z,3.07
2023-01-06T10:20:54.569Z,2.40
2023-01-06T10:23:37.231Z,2.33
2023-01-06T10:26:12.846Z,2.90
2023-01-06T10:28:44.310Z,4.30
2023-01-06T10:31:14.438Z,2.83
2023-01-06T10:33:47.592Z,4.13
2023-01-06T10:36:19.189Z,2.50
2023-01-06T10:38:50.549Z,2.20
2023-01-06T10:41:23.960Z,2.60
2023-01-06T10:43:52.580Z,3.03
2023-01-06T10:46:21.346Z,3.90
2023-01-06T10:48:52.210Z,5.43
2023-01-06T10:51:35.922Z,7.13
2023-01-06T10:54:08.263Z,7.67
2023-01-06T10:56:38.297Z,8.03
2023-01-06T10:59:11.646Z,5.63
2023-01-06T11:01:50.820Z,8.80
2023-01-06T11:04:21.853Z,6.70
2023-01-06T11:06:56.324Z,4.73
2023-01-06T11:09:31.527Z,2.67
2023-01-06T11:12:02.612Z,3.67
2023-01-06T11:14:32.657Z,2.93
2023-01-06T11:17:03.268Z,3.10
2023-01-06T11:19:38.853Z,2.60
2023-01-06T11:22:38.138Z,2.80
2023-01-06T11:25:29.535Z,3.77
2023-01-06T11:28:23.931Z,3.20
2023-01-06T11:30:54.404Z,2.93
2023-01-06T11:33:24.886Z,2.87
2023-01-06T11:35:55.573Z,2.30
2023-01-06T11:38:25.131Z,2.73
2023-01-06T11:40:54.491Z,2.70
2023-01-06T11:43:25.405Z,2.60
2023-01-06T11:45:58.726Z,3.07
2023-01-06T11:48:29.642Z,3.00
2023-01-06T11:51:01.417Z,3.80
2023-01-06T11:53:33.806Z,3.83
2023-01-06T11:56:04.975Z,3.43
2023-01-06T11:58:51.090Z,3.87
2023-01-06T12:01:27.341Z,4.57
2023-01-06T12:04:05.773Z,3.97
2023-01-06T12:06:38.961Z,3.00
2023-01-06T12:09:13.432Z,3.33
2023-01-06T12:11:47.170Z,3.60
2023-01-06T12:14:28.018Z,3.07
2023-01-06T12:17:04.464Z,3.53
2023-01-06T12:19:38.018Z,4.67
2023-01-06T12:22:11.969Z,4.87
2023-01-06T12:24:41.695Z,4.07
2023-01-06T12:27:12.651Z,3.67
2023-01-06T12:29:41.364Z,3.73
2023-01-06T12:32:14.254Z,2.80
2023-01-06T12:34:48.583Z,2.40
2023-01-06T12:37:21.958Z,3.13
2023-01-06T12:39:56.637Z,2.53
2023-01-06T12:42:29.589Z,2.33
2023-01-06T12:45:01.495Z,2.10
2023-01-06T12:47:34.375Z,2.53
2023-01-06T12:50:06.829Z,1.80
2023-01-06T12:52:42.743Z,1.87
2023-01-06T12:55:14.770Z,2.00
2023-01-06T12:57:52.291Z,1.70
2023-01-06T13:00:33.877Z,1.90
2023-01-06T13:03:26.018Z,1.87
2023-01-06T13:06:06.472Z,1.97
2023-01-06T13:08:53.102Z,2.20
2023-01-06T13:11:29.091Z,2.43
2023-01-06T13:14:03.584Z,2.50
2023-01-06T13:16:39.638Z,2.53
2023-01-06T13:19:21.046Z,2.50
2023-01-06T13:21:59.196Z,2.60
2023-01-06T13:24:42.898Z,2.80
2023-01-06T13:27:43.588Z,2.87
2023-01-06T13:30:41.935Z,2.20
2023-01-06T13:33:30.936Z,3.80
2023-01-06T13:36:17.662Z,4.27
2023-01-06T13:38:58.526Z,3.33
2023-01-06T13:41:34.379Z,4.47
2023-01-06T13:44:11.692Z,3.33
2023-01-06T13:46:40.231Z,2.70
2023-01-06T13:49:09.287Z,4.17
2023-01-06T13:51:40.660Z,4.00
2023-01-06T13:54:47.991Z,9.40
2023-01-06T13:57:36.928Z,15.80
2023-01-06T14:00:26.902Z,16.07
2023-01-06T14:03:16.805Z,5.97
2023-01-06T14:05:52.932Z,3.73
2023-01-06T14:08:22.850Z,4.23
2023-01-06T14:11:00.830Z,2.77
2023-01-06T14:13:34.579Z,3.07
2023-01-06T14:16:06.834Z,5.40
2023-01-06T14:18:41.308Z,5.20
2023-01-06T14:21:24.126Z,12.30
2023-01-06T14:23:58.600Z,11.13
2023-01-06T14:26:46.405Z,8.87
2023-01-06T14:29:48.825Z,5.20
2023-01-06T14:32:54.816Z,4.33
2023-01-06T14:35:29.883Z,3.37
2023-01-06T14:38:01.298Z,3.20
2023-01-06T14:40:31.426Z,4.37
2023-01-06T14:43:02.743Z,3.73
2023-01-06T14:45:38.629Z,3.50
2023-01-06T14:48:10.315Z,3.30
2023-01-06T14:50:47.552Z,3.73
2023-01-06T14:53:25.425Z,4.67
2023-01-06T14:55:57.093Z,4.30
2023-01-06T14:58:32.698Z,12.07
2023-01-06T15:01:05.977Z,26.40
2023-01-06T15:03:35.145Z,32.17
2023-01-06T15:06:18.989Z,23.10
2023-01-06T15:08:47.923Z,13.40
2023-01-06T15:11:27.991Z,12.10
2023-01-06T15:13:56.851Z,14.63
2023-01-06T15:16:33.613Z,20.30
2023-01-06T15:19:02.703Z,28.87
2023-01-06T15:21:31.312Z,16.97
2023-01-06T15:23:59.924Z,12.10
2023-01-06T15:26:29.976Z,11.27
2023-01-06T15:29:03.583Z,7.83
2023-01-06T15:31:35.981Z,9.60
2023-01-06T15:34:07.767Z,9.97
2023-01-06T15:36:36.924Z,10.97
2023-01-06T15:39:06.442Z,11.73
2023-01-06T15:41:36.802Z,12.97
2023-01-06T15:44:28.247Z,15.87
2023-01-06T15:47:10.071Z,18.23
2023-01-06T15:49:39.916Z,19.77
2023-01-06T15:52:09.745Z,26.87
2023-01-06T15:54:39.523Z,19.93
2023-01-06T15:57:16.449Z,14.80
2023-01-06T15:59:54.432Z,17.47
2023-01-06T16:02:26.836Z,16.83
2023-01-06T16:04:55.864Z,14.60
2023-01-06T16:07:34.785Z,13.33
2023-01-06T16:10:03.691Z,11.63
2023-01-06T16:12:32.212Z,10.37
2023-01-06T16:15:36.978Z,12.57
2023-01-06T16:18:07.905Z,11.73
2023-01-06T16:20:36.532Z,14.90
2023-01-06T16:23:05.149Z,20.97
2023-01-06T16:25:35.339Z,22.93
2023-01-06T16:28:06.112Z,22.30
2023-01-06T16:30:36.497Z,17.50
2023-01-06T16:33:07.035Z,16.00
2023-01-06T16:35:36.123Z,18.27
2023-01-06T16:38:06.717Z,19.87
2023-01-06T16:40:35.338Z,16.70
2023-01-06T16:43:05.344Z,13.30
2023-01-06T16:45:35.664Z,27.57
2023-01-06T16:48:04.768Z,24.70
2023-01-06T16:50:40.665Z,22.03
2023-01-06T16:53:14.941Z,34.67
2023-01-06T16:55:43.742Z,34.70
2023-01-06T16:58:17.987Z,40.07
2023-01-06T17:00:51.809Z,26.63
2023-01-06T17:03:21.724Z,16.50
2023-01-06T17:05:52.006Z,14.03
2023-01-06T17:08:30.968Z,20.47
2023-01-06T17:11:01.867Z,19.80
2023-01-06T17:13:36.791Z,44.50
2023-01-06T17:16:14.938Z,20.47
2023-01-06T17:18:50.093Z,13.47
2023-01-06T17:21:22.284Z,16.83
2023-01-06T17:23:52.409Z,15.83
2023-01-06T17:26:21.955Z,17.83
2023-01-06T17:28:51.544Z,16.37
2023-01-06T17:31:25.275Z,13.83
2023-01-06T17:33:54.989Z,13.23
2023-01-06T17:36:26.236Z,15.37
2023-01-06T17:38:54.841Z,12.47
2023-01-06T17:41:23.448Z,15.37
2023-01-06T17:43:52.021Z,42.53
2023-01-06T17:46:25.214Z,40.90
2023-01-06T17:49:01.721Z,30.20
2023-01-06T17:51:31.651Z,23.57
2023-01-06T17:54:17.904Z,15.47
2023-01-06T17:56:46.729Z,11.93
2023-01-06T17:59:18.450Z,9.87
2023-01-06T18:01:47.092Z,9.20
2023-01-06T18:04:16.474Z,9.83
2023-01-06T18:06:52.822Z,10.67
2023-01-06T18:09:24.621Z,11.80
2023-01-06T18:11:54.637Z,10.90
2023-01-06T18:14:25.446Z,12.90
2023-01-06T18:16:56.696Z,14.23
2023-01-06T18:19:31.000Z,20.57
2023-01-06T18:22:04.048Z,28.10
2023-01-06T18:24:36.439Z,20.00
2023-01-06T18:27:10.429Z,15.70
2023-01-06T18:29:39.292Z,17.60
2023-01-06T18:32:24.240Z,10.33
2023-01-06T18:34:54.022Z,10.93
2023-01-06T18:37:26.480Z,10.50
2023-01-06T18:39:58.610Z,10.57
2023-01-06T18:42:29.818Z,10.10
2023-01-06T18:45:21.727Z,14.43
2023-01-06T18:47:54.271Z,20.93
2023-01-06T18:50:29.873Z,23.07
2023-01-06T18:53:00.055Z,30.17
2023-01-06T18:55:35.148Z,37.87
2023-01-06T18:58:08.986Z,49.33
2023-01-06T19:00:41.399Z,37.50
2023-01-06T19:03:35.007Z,20.80
2023-01-06T19:06:29.222Z,14.20
2023-01-06T19:08:59.150Z,14.77
2023-01-06T19:11:28.427Z,13.77
2023-01-06T19:14:01.826Z,10.93
2023-01-06T19:16:37.690Z,12.70
2023-01-06T19:19:27.880Z,15.13
2023-01-06T19:22:04.509Z,12.73
2023-01-06T19:24:46.961Z,13.00
2023-01-06T19:27:33.117Z,17.47
2023-01-06T19:30:34.751Z,21.13
2023-01-06T19:33:20.976Z,16.43
2023-01-06T19:35:49.599Z,18.03
2023-01-06T19:38:26.592Z,19.33
2023-01-06T19:40:58.183Z,14.73
2023-01-06T19:43:29.483Z,16.87
2023-01-06T19:45:58.341Z,14.73
2023-01-06T19:48:30.445Z,12.97
2023-01-06T19:51:06.904Z,9.83
2023-01-06T19:53:43.975Z,7.90
2023-01-06T19:56:19.645Z,8.47
2023-01-06T19:58:52.288Z,17.13
2023-01-06T20:01:21.448Z,15.50
2023-01-06T20:03:50.884Z,15.60
2023-01-06T20:06:19.427Z,21.07
2023-01-06T20:08:52.278Z,26.40
2023-01-06T20:11:23.416Z,22.77
2023-01-06T20:13:52.349Z,26.60
2023-01-06T20:16:20.953Z,28.87
2023-01-06T20:18:50.669Z,23.90
2023-01-06T20:21:19.262Z,20.40
2023-01-06T20:23:47.754Z,18.50
2023-01-06T20:26:16.309Z,18.63
2023-01-06T20:28:46.237Z,18.60
2023-01-06T20:31:14.826Z,14.87
2023-01-06T20:33:43.329Z,11.00
2023-01-06T20:36:11.892Z,10.70
2023-01-06T20:38:40.394Z,14.97
2023-01-06T20:41:08.907Z,15.30
2023-01-06T20:43:37.434Z,12.03
2023-01-06T20:46:07.744Z,16.47
2023-01-06T20:48:36.439Z,16.43
2023-01-06T20:51:05.040Z,18.33
2023-01-06T20:53:33.588Z,16.53
2023-01-06T20:56:02.116Z,13.70
2023-01-06T20:58:30.678Z,13.60
2023-01-06T21:00:59.286Z,15.80
2023-01-06T21:03:29.192Z,16.13
2023-01-06T21:05:57.713Z,14.13
2023-01-06T21:08:26.222Z,26.57
2023-01-06T21:10:54.716Z,34.60
2023-01-06T21:13:24.584Z,28.90
2023-01-06T21:15:53.347Z,18.20
2023-01-06T21:18:21.897Z,17.60
2023-01-06T21:20:51.894Z,19.07
2023-01-06T21:23:20.454Z,23.43
2023-01-06T21:25:49.106Z,40.90
2023-01-06T21:28:17.813Z,36.53
2023-01-06T21:30:48.501Z,16.80
2023-01-06T21:33:20.422Z,11.43
2023-01-06T21:35:51.340Z,8.50
2023-01-06T21:38:20.263Z,6.83
2023-01-06T21:40:48.760Z,7.70
2023-01-06T21:43:17.049Z,7.37
2023-01-06T21:45:46.648Z,6.97
2023-01-06T21:48:15.184Z,7.47
2023-01-06T21:50:45.112Z,7.47
2023-01-06T21:53:15.828Z,8.67
2023-01-06T21:55:44.352Z,12.10
2023-01-06T21:58:12.932Z,14.27
2023-01-06T22:00:41.625Z,12.27
2023-01-06T22:03:10.169Z,11.30
2023-01-06T22:05:38.863Z,13.80
2023-01-06T22:08:08.054Z,39.70
2023-01-06T22:10:39.873Z,36.23
2023-01-06T22:13:09.849Z,22.50
2023-01-06T22:15:38.594Z,16.13
2023-01-06T22:18:08.316Z,12.40
2023-01-06T22:20:37.052Z,11.83
2023-01-06T22:23:08.004Z,18.80
2023-01-06T22:25:37.917Z,34.00
2023-01-06T22:28:06.668Z,21.43
2023-01-06T22:30:35.303Z,11.73
2023-01-06T22:33:04.763Z,8.47
2023-01-06T22:35:33.320Z,6.57
2023-01-06T22:38:02.062Z,7.03
2023-01-06T22:40:30.685Z,5.67
2023-01-06T22:43:00.800Z,5.00
2023-01-06T22:45:29.385Z,4.20
2023-01-06T22:47:58.027Z,5.70
2023-01-06T22:50:26.641Z,6.83
2023-01-06T22:53:08.984Z,5.80
2023-01-06T22:55:57.743Z,7.53
2023-01-06T22:58:27.839Z,6.37
2023-01-06T23:00:56.411Z,6.47
2023-01-06T23:03:25.331Z,6.63
2023-01-06T23:05:57.908Z,5.93
2023-01-06T23:08:27.369Z,5.43
2023-01-06T23:11:00.258Z,4.67
2023-01-06T23:13:30.679Z,5.23
2023-01-06T23:16:03.377Z,6.10
2023-01-06T23:18:32.470Z,6.43
2023-01-06T23:21:02.105Z,5.63
2023-01-06T23:23:31.701Z,5.47
2023-01-06T23:26:03.966Z,5.40
2023-01-06T23:28:34.399Z,5.70
2023-01-06T23:31:04.676Z,6.00
2023-01-06T23:33:33.609Z,7.47
2023-01-06T23:36:03.060Z,8.10
2023-01-06T23:38:32.001Z,5.60
2023-01-06T23:41:04.726Z,5.40
2023-01-06T23:43:36.218Z,4.97
2023-01-06T23:46:05.841Z,4.37
2023-01-06T23:48:35.511Z,4.73
2023-01-06T23:51:04.887Z,3.87
2023-01-06T23:53:34.196Z,4.63
2023-01-06T23:56:04.860Z,4.37
2023-01-06T23:58:36.634Z,3.50
